createdAt,value
2018-05-26T00:00:46.166Z,17.40
2018-05-26T00:03:14.500Z,17.40
2018-05-26T00:05:43.642Z,17.30
2018-05-26T00:08:12.147Z,17.30
2018-05-26T00:10:40.504Z,17.30
2018-05-26T00:13:08.870Z,17.30
2018-05-26T00:15:37.343Z,17.20
2018-05-26T00:18:06.472Z,17.10
2018-05-26T00:20:34.867Z,17.00
2018-05-26T00:23:04.014Z,17.00
2018-05-26T00:25:32.447Z,17.00
2018-05-26T00:28:01.637Z,16.90
2018-05-26T00:30:30.757Z,16.80
2018-05-26T00:32:59.132Z,16.80
2018-05-26T00:35:27.675Z,16.70
2018-05-26T00:37:56.030Z,16.60
2018-05-26T00:40:24.375Z,16.50
2018-05-26T00:42:52.869Z,16.40
2018-05-26T00:45:21.234Z,16.30
2018-05-26T00:47:49.583Z,16.30
2018-05-26T00:50:18.723Z,16.10
2018-05-26T00:52:47.079Z,16.10
2018-05-26T00:55:15.598Z,16.20
2018-05-26T00:57:43.956Z,16.10
2018-05-26T01:00:12.311Z,16.10
2018-05-26T01:02:40.697Z,16.00
2018-05-26T01:05:09.059Z,16.00
2018-05-26T01:07:38.172Z,15.80
2018-05-26T01:10:06.571Z,15.80
2018-05-26T01:12:34.916Z,15.80
2018-05-26T01:15:03.293Z,15.70
2018-05-26T01:17:31.720Z,15.60
2018-05-26T01:20:00.092Z,15.60
2018-05-26T01:22:28.427Z,15.50
2018-05-26T01:24:56.812Z,15.50
2018-05-26T01:27:25.202Z,15.40
2018-05-26T01:29:53.563Z,15.40
2018-05-26T01:32:22.070Z,15.30
2018-05-26T01:34:50.427Z,15.30
2018-05-26T01:37:18.779Z,15.30
2018-05-26T01:39:47.937Z,15.20
2018-05-26T01:42:16.347Z,15.20
2018-05-26T01:44:45.477Z,15.10
2018-05-26T01:47:13.841Z,15.10
2018-05-26T01:49:42.617Z,15.10
2018-05-26T01:52:11.733Z,15.00
2018-05-26T01:54:40.100Z,15.00
2018-05-26T01:57:08.502Z,15.00
2018-05-26T01:59:36.902Z,15.00
2018-05-26T02:02:05.286Z,15.00
2018-05-26T02:04:33.716Z,14.90
2018-05-26T02:07:02.079Z,15.00
2018-05-26T02:09:31.203Z,14.90
2018-05-26T02:11:59.583Z,14.90
2018-05-26T02:14:27.953Z,14.90
2018-05-26T02:16:56.458Z,14.90
2018-05-26T02:19:24.787Z,14.90
2018-05-26T02:21:53.902Z,15.00
2018-05-26T02:24:22.283Z,14.90
2018-05-26T02:26:51.402Z,14.90
2018-05-26T02:29:19.789Z,14.90
2018-05-26T02:31:48.155Z,14.90
2018-05-26T02:34:16.655Z,15.00
2018-05-26T02:36:45.005Z,15.00
2018-05-26T02:39:13.363Z,15.00
2018-05-26T02:41:41.727Z,14.90
2018-05-26T02:44:10.092Z,14.90
2018-05-26T02:46:39.371Z,14.80
2018-05-26T02:49:07.734Z,14.70
2018-05-26T02:51:36.074Z,14.70
2018-05-26T02:54:04.469Z,14.70
2018-05-26T02:56:32.836Z,14.70
2018-05-26T02:59:01.347Z,14.60
2018-05-26T03:01:29.697Z,14.60
2018-05-26T03:03:57.562Z,14.50
2018-05-26T03:06:31.664Z,14.50
2018-05-26T03:09:05.718Z,14.50
2018-05-26T03:11:39.748Z,14.40
2018-05-26T03:14:13.796Z,14.40
2018-05-26T03:16:43.720Z,14.30
2018-05-26T03:19:12.065Z,14.30
2018-05-26T03:21:41.202Z,14.20
2018-05-26T03:24:09.588Z,14.20
2018-05-26T03:26:37.953Z,14.20
2018-05-26T03:29:06.321Z,14.20
2018-05-26T03:31:35.468Z,14.20
2018-05-26T03:34:03.832Z,14.10
2018-05-26T03:36:32.192Z,14.20
2018-05-26T03:39:00.556Z,14.20
2018-05-26T03:41:29.055Z,14.20
2018-05-26T03:43:57.393Z,14.20
2018-05-26T03:46:25.788Z,14.20
2018-05-26T03:48:54.267Z,14.20
2018-05-26T03:51:22.621Z,14.10
2018-05-26T03:53:50.999Z,14.20
2018-05-26T03:56:31.049Z,14.10
2018-05-26T03:59:11.209Z,14.20
2018-05-26T04:01:39.574Z,14.30
2018-05-26T04:04:08.709Z,14.30
2018-05-26T04:06:38.038Z,14.30
2018-05-26T04:09:06.392Z,14.30
2018-05-26T04:11:34.728Z,14.30
2018-05-26T04:14:03.106Z,14.20
2018-05-26T04:16:31.455Z,14.20
2018-05-26T04:18:59.953Z,14.30
2018-05-26T04:21:28.324Z,14.30
2018-05-26T04:23:57.458Z,14.30
2018-05-26T04:26:25.836Z,14.30
2018-05-26T04:28:54.217Z,14.40
2018-05-26T04:31:22.599Z,14.40
2018-05-26T04:33:50.960Z,14.50
2018-05-26T04:36:19.329Z,14.50
2018-05-26T04:38:47.695Z,14.50
2018-05-26T04:41:16.085Z,14.50
2018-05-26T04:43:44.446Z,14.60
2018-05-26T04:46:13.590Z,14.60
2018-05-26T04:48:41.932Z,14.60
2018-05-26T04:51:10.305Z,14.80
2018-05-26T04:53:38.720Z,14.80
2018-05-26T04:56:07.081Z,14.90
2018-05-26T04:58:35.442Z,15.00
2018-05-26T05:01:03.982Z,15.00
2018-05-26T05:03:32.328Z,15.00
2018-05-26T05:06:00.682Z,15.10
2018-05-26T05:08:29.172Z,15.20
2018-05-26T05:10:57.501Z,15.20
2018-05-26T05:13:25.859Z,15.30
2018-05-26T05:15:54.634Z,15.40
2018-05-26T05:18:22.987Z,15.50
2018-05-26T05:20:51.346Z,15.60
2018-05-26T05:23:20.921Z,16.10
2018-05-26T05:25:49.299Z,16.10
2018-05-26T05:28:17.660Z,16.40
2018-05-26T05:30:46.124Z,16.60
2018-05-26T05:33:14.481Z,17.00
2018-05-26T05:35:42.853Z,17.40
2018-05-26T05:38:11.233Z,17.60
2018-05-26T05:40:40.001Z,17.80
2018-05-26T05:43:08.363Z,17.90
2018-05-26T05:45:36.706Z,18.00
2018-05-26T05:48:05.124Z,18.10
2018-05-26T05:50:34.244Z,18.10
2018-05-26T05:53:02.607Z,18.10
2018-05-26T05:55:31.758Z,18.30
2018-05-26T05:58:00.154Z,18.30
2018-05-26T06:00:28.510Z,18.40
2018-05-26T06:02:56.876Z,18.50
2018-05-26T06:05:25.257Z,18.60
2018-05-26T06:07:53.620Z,18.70
2018-05-26T06:10:21.991Z,18.80
2018-05-26T06:12:50.344Z,19.00
2018-05-26T06:15:19.474Z,19.10
2018-05-26T06:17:47.969Z,19.10
2018-05-26T06:20:16.331Z,19.20
2018-05-26T06:22:44.686Z,19.60
2018-05-26T06:25:13.047Z,19.70
2018-05-26T06:27:42.161Z,19.60
2018-05-26T06:30:10.638Z,19.60
2018-05-26T06:32:38.990Z,19.80
2018-05-26T06:35:08.097Z,20.00
2018-05-26T06:37:37.696Z,20.10
2018-05-26T06:40:06.006Z,20.10
2018-05-26T06:42:34.367Z,20.20
2018-05-26T06:45:03.185Z,20.10
2018-05-26T06:47:31.562Z,20.40
2018-05-26T06:49:59.900Z,20.50
2018-05-26T06:52:29.462Z,20.60
2018-05-26T06:54:57.816Z,20.60
2018-05-26T06:57:26.152Z,20.80
2018-05-26T06:59:54.568Z,21.00
2018-05-26T07:02:22.912Z,21.00
2018-05-26T07:04:52.060Z,21.10
2018-05-26T07:07:20.435Z,21.10
2018-05-26T07:09:48.825Z,21.10
2018-05-26T07:12:17.197Z,21.40
2018-05-26T07:14:45.553Z,21.50
2018-05-26T07:17:14.467Z,21.90
2018-05-26T07:19:42.800Z,22.10
2018-05-26T07:22:13.133Z,22.30
2018-05-26T07:24:41.559Z,22.30
2018-05-26T07:27:09.986Z,22.60
2018-05-26T07:29:38.368Z,22.80
2018-05-26T07:32:06.752Z,23.30
2018-05-26T07:34:35.153Z,23.40
2018-05-26T07:37:03.531Z,23.50
2018-05-26T07:39:34.400Z,23.50
2018-05-26T07:42:03.608Z,23.70
2018-05-26T07:44:32.757Z,23.50
2018-05-26T07:47:01.140Z,23.50
2018-05-26T07:49:29.512Z,23.40
2018-05-26T07:51:57.924Z,23.50
2018-05-26T07:54:27.064Z,24.10
2018-05-26T07:56:55.424Z,24.10
2018-05-26T07:59:23.788Z,24.10
2018-05-26T08:01:54.933Z,24.30
2018-05-26T08:04:23.473Z,24.30
2018-05-26T08:06:51.832Z,24.50
2018-05-26T08:09:20.209Z,24.50
2018-05-26T08:11:49.097Z,24.90
2018-05-26T08:14:17.455Z,24.60
2018-05-26T08:16:45.797Z,24.90
2018-05-26T08:19:14.180Z,25.10
2018-05-26T08:21:43.317Z,25.30
2018-05-26T08:24:11.697Z,25.20
2018-05-26T08:26:40.612Z,25.40
2018-05-26T08:29:08.949Z,25.60
2018-05-26T08:31:37.286Z,25.50
2018-05-26T08:34:05.673Z,25.80
2018-05-26T08:36:34.807Z,26.00
2018-05-26T08:39:03.695Z,26.10
2018-05-26T08:41:32.068Z,25.80
2018-05-26T08:44:00.455Z,26.20
2018-05-26T08:46:28.944Z,26.20
2018-05-26T08:48:57.309Z,26.50
2018-05-26T08:51:25.668Z,26.60
2018-05-26T08:53:54.169Z,26.60
2018-05-26T08:56:22.517Z,26.90
2018-05-26T08:58:51.625Z,27.10
2018-05-26T09:01:20.007Z,27.10
2018-05-26T09:03:48.382Z,27.10
2018-05-26T09:06:16.765Z,27.20
2018-05-26T09:08:45.151Z,27.30
2018-05-26T09:11:13.562Z,27.50
2018-05-26T09:13:41.947Z,27.50
2018-05-26T09:16:10.305Z,27.60
2018-05-26T09:18:38.742Z,28.00
2018-05-26T09:21:07.130Z,28.20
2018-05-26T09:23:35.495Z,27.90
2018-05-26T09:26:03.916Z,28.10
2018-05-26T09:28:32.266Z,27.90
2018-05-26T09:31:00.627Z,28.10
2018-05-26T09:33:29.763Z,28.20
2018-05-26T09:35:58.136Z,28.20
2018-05-26T09:38:26.947Z,28.30
2018-05-26T09:40:55.288Z,28.20
2018-05-26T09:43:23.646Z,28.00
2018-05-26T09:45:52.052Z,28.40
2018-05-26T09:48:20.408Z,28.70
2018-05-26T09:50:48.776Z,28.70
2018-05-26T09:53:17.156Z,28.30
2018-05-26T09:55:45.512Z,28.20
2018-05-26T09:58:14.750Z,28.50
2018-05-26T10:00:43.112Z,28.40
2018-05-26T10:03:11.474Z,28.10
2018-05-26T10:05:41.237Z,28.60
2018-05-26T10:08:09.606Z,28.60
2018-05-26T10:10:37.976Z,28.70
2018-05-26T10:13:06.350Z,28.70
2018-05-26T10:15:34.745Z,29.00
2018-05-26T10:18:03.098Z,29.30
2018-05-26T10:20:31.893Z,29.10
2018-05-26T10:23:01.249Z,28.90
2018-05-26T10:25:30.376Z,29.10
2018-05-26T10:27:58.800Z,29.20
2018-05-26T10:30:27.192Z,29.60
2018-05-26T10:32:55.539Z,29.90
2018-05-26T10:35:23.928Z,30.20
2018-05-26T10:37:52.417Z,30.20
2018-05-26T10:40:20.781Z,29.90
2018-05-26T10:42:49.159Z,29.90
2018-05-26T10:45:18.446Z,29.80
2018-05-26T10:47:46.814Z,29.90
2018-05-26T10:50:15.175Z,30.30
2018-05-26T10:52:44.012Z,30.30
2018-05-26T10:55:12.367Z,30.40
2018-05-26T10:57:40.727Z,30.10
2018-05-26T11:00:09.107Z,29.80
2018-05-26T11:02:37.481Z,30.00
2018-05-26T11:05:05.845Z,30.10
2018-05-26T11:07:34.284Z,30.00
2018-05-26T11:10:02.667Z,30.20
2018-05-26T11:12:31.800Z,29.90
2018-05-26T11:15:00.179Z,29.90
2018-05-26T11:17:28.556Z,30.20
2018-05-26T11:19:56.965Z,30.60
2018-05-26T11:22:25.320Z,30.50
2018-05-26T11:24:53.702Z,30.80
2018-05-26T11:27:22.077Z,30.60
2018-05-26T11:29:50.544Z,30.30
2018-05-26T11:32:18.917Z,30.40
2018-05-26T11:34:47.301Z,30.10
2018-05-26T11:37:15.774Z,30.50
2018-05-26T11:39:44.155Z,30.50
2018-05-26T11:42:12.529Z,30.80
2018-05-26T11:44:41.090Z,31.00
2018-05-26T11:47:10.217Z,31.40
2018-05-26T11:49:38.579Z,31.40
2018-05-26T11:52:06.993Z,31.30
2018-05-26T11:54:35.336Z,31.50
2018-05-26T11:57:03.696Z,31.70
2018-05-26T11:59:33.268Z,31.40
2018-05-26T12:02:01.629Z,31.40
2018-05-26T12:04:29.989Z,31.30
2018-05-26T12:06:58.700Z,31.20
2018-05-26T12:09:27.052Z,30.90
2018-05-26T12:11:55.412Z,31.00
2018-05-26T12:14:23.780Z,31.20
2018-05-26T12:16:52.911Z,31.20
2018-05-26T12:19:21.639Z,31.20
2018-05-26T12:21:49.983Z,31.20
2018-05-26T12:24:18.342Z,30.80
2018-05-26T12:26:47.184Z,30.80
2018-05-26T12:29:15.556Z,31.00
2018-05-26T12:31:43.938Z,31.00
2018-05-26T12:34:12.319Z,30.90
2018-05-26T12:36:41.593Z,30.70
2018-05-26T12:39:09.981Z,30.70
2018-05-26T12:41:38.348Z,30.90
2018-05-26T12:44:06.737Z,31.20
2018-05-26T12:46:35.076Z,30.90
2018-05-26T12:49:03.495Z,30.80
2018-05-26T12:51:31.848Z,30.70
2018-05-26T12:54:00.217Z,30.70
2018-05-26T12:56:28.948Z,30.90
2018-05-26T12:58:57.508Z,31.20
2018-05-26T13:01:25.853Z,31.30
2018-05-26T13:03:54.207Z,31.50
2018-05-26T13:06:22.584Z,31.40
2018-05-26T13:08:50.939Z,31.00
2018-05-26T13:11:19.356Z,31.20
2018-05-26T13:13:47.739Z,31.40
2018-05-26T13:16:16.111Z,31.60
2018-05-26T13:18:44.485Z,31.60
2018-05-26T13:21:13.042Z,31.70
2018-05-26T13:23:41.534Z,31.80
2018-05-26T13:26:09.941Z,32.00
2018-05-26T13:28:38.451Z,31.30
2018-05-26T13:31:06.820Z,30.70
2018-05-26T13:33:35.221Z,30.60
2018-05-26T13:36:03.640Z,30.70
2018-05-26T13:38:31.999Z,31.00
2018-05-26T13:41:00.380Z,31.00
2018-05-26T13:43:28.787Z,31.50
2018-05-26T13:45:57.166Z,31.40
2018-05-26T13:48:25.525Z,31.60
2018-05-26T13:50:53.975Z,31.80
2018-05-26T13:53:23.177Z,31.70
2018-05-26T13:55:52.326Z,31.60
2018-05-26T13:58:20.698Z,31.80
2018-05-26T14:00:49.045Z,31.80
2018-05-26T14:03:17.435Z,32.00
2018-05-26T14:05:45.795Z,32.10
2018-05-26T14:08:14.177Z,32.00
2018-05-26T14:10:42.558Z,32.30
2018-05-26T14:13:10.930Z,32.10
2018-05-26T14:15:39.286Z,32.30
2018-05-26T14:18:08.412Z,32.00
2018-05-26T14:20:36.891Z,31.90
2018-05-26T14:23:05.294Z,31.90
2018-05-26T14:25:33.663Z,32.10
2018-05-26T14:28:02.376Z,32.00
2018-05-26T14:30:30.768Z,32.10
2018-05-26T14:32:59.136Z,31.80
2018-05-26T14:35:27.628Z,31.70
2018-05-26T14:37:55.988Z,31.80
2018-05-26T14:40:24.352Z,31.90
2018-05-26T14:42:52.762Z,32.10
2018-05-26T14:45:21.100Z,31.60
2018-05-26T14:47:49.460Z,31.80
2018-05-26T14:50:17.821Z,31.80
2018-05-26T14:52:46.170Z,32.00
2018-05-26T14:55:14.585Z,32.00
2018-05-26T14:57:42.932Z,32.10
2018-05-26T15:00:12.061Z,32.10
2018-05-26T15:02:40.479Z,32.10
2018-05-26T15:05:08.849Z,31.80
2018-05-26T15:07:37.249Z,31.90
2018-05-26T15:10:05.762Z,31.60
2018-05-26T15:12:34.136Z,31.20
2018-05-26T15:15:03.265Z,30.70
2018-05-26T15:17:32.044Z,30.70
2018-05-26T15:20:00.408Z,31.10
2018-05-26T15:22:28.795Z,31.60
2018-05-26T15:24:57.199Z,31.80
2018-05-26T15:27:25.552Z,31.70
2018-05-26T15:29:54.064Z,31.80
2018-05-26T15:32:22.445Z,32.00
2018-05-26T15:34:50.834Z,32.00
2018-05-26T15:37:19.224Z,31.80
2018-05-26T15:39:48.338Z,31.50
2018-05-26T15:42:16.753Z,31.40
2018-05-26T15:44:45.117Z,31.60
2018-05-26T15:47:13.461Z,31.90
2018-05-26T15:49:42.615Z,31.70
2018-05-26T15:52:10.979Z,31.60
2018-05-26T15:54:39.485Z,31.70
2018-05-26T15:57:08.312Z,31.80
2018-05-26T15:59:36.842Z,31.50
2018-05-26T16:02:05.213Z,31.70
2018-05-26T16:04:33.571Z,31.90
2018-05-26T16:07:02.073Z,32.40
2018-05-26T16:09:30.438Z,33.20
2018-05-26T16:11:58.779Z,32.80
2018-05-26T16:14:27.951Z,33.20
2018-05-26T16:16:56.319Z,33.10
2018-05-26T16:19:24.699Z,33.40
2018-05-26T16:21:53.218Z,33.10
2018-05-26T16:24:21.561Z,33.50
2018-05-26T16:26:49.921Z,33.70
2018-05-26T16:29:18.470Z,34.30
2018-05-26T16:31:47.288Z,34.20
2018-05-26T16:34:15.656Z,34.30
2018-05-26T16:36:44.016Z,34.50
2018-05-26T16:39:12.477Z,35.10
2018-05-26T16:41:40.901Z,34.80
2018-05-26T16:44:09.251Z,34.90
2018-05-26T16:46:38.047Z,35.00
2018-05-26T16:49:06.511Z,35.40
2018-05-26T16:51:34.896Z,35.60
2018-05-26T16:54:03.282Z,35.30
2018-05-26T16:56:31.795Z,35.50
2018-05-26T16:59:00.197Z,35.30
2018-05-26T17:01:29.328Z,35.20
2018-05-26T17:03:57.708Z,35.10
2018-05-26T17:06:26.088Z,35.00
2018-05-26T17:08:54.450Z,34.80
2018-05-26T17:11:22.831Z,34.70
2018-05-26T17:13:51.211Z,34.70
2018-05-26T17:16:20.332Z,34.90
2018-05-26T17:18:48.713Z,34.90
2018-05-26T17:21:17.081Z,35.20
2018-05-26T17:23:45.596Z,34.90
2018-05-26T17:26:13.963Z,34.70
2018-05-26T17:28:42.310Z,34.50
2018-05-26T17:31:11.110Z,34.60
2018-05-26T17:33:39.606Z,34.50
2018-05-26T17:36:07.969Z,34.70
2018-05-26T17:38:36.701Z,34.70
2018-05-26T17:41:05.811Z,34.70
2018-05-26T17:43:34.184Z,34.70
2018-05-26T17:46:02.585Z,34.50
2018-05-26T17:48:30.945Z,34.30
2018-05-26T17:50:59.387Z,34.00
2018-05-26T17:53:27.779Z,33.90
2018-05-26T17:55:56.880Z,32.80
2018-05-26T17:58:26.027Z,32.70
2018-05-26T18:00:54.379Z,32.60
2018-05-26T18:03:22.755Z,32.00
2018-05-26T18:05:51.131Z,32.20
2018-05-26T18:08:19.653Z,31.60
2018-05-26T18:10:48.006Z,31.00
2018-05-26T18:13:16.360Z,30.60
2018-05-26T18:15:44.742Z,29.70
2018-05-26T18:18:13.105Z,29.00
2018-05-26T18:20:41.497Z,28.50
2018-05-26T18:23:09.847Z,28.00
2018-05-26T18:25:39.005Z,27.30
2018-05-26T18:28:07.349Z,27.30
2018-05-26T18:30:35.779Z,26.90
2018-05-26T18:33:04.137Z,26.60
2018-05-26T18:35:32.524Z,26.40
2018-05-26T18:38:00.917Z,26.30
2018-05-26T18:40:29.252Z,26.10
2018-05-26T18:42:57.621Z,25.90
2018-05-26T18:45:25.959Z,25.70
2018-05-26T18:47:55.117Z,25.50
2018-05-26T18:50:26.643Z,25.50
2018-05-26T18:52:55.029Z,25.30
2018-05-26T18:55:23.392Z,25.20
2018-05-26T18:57:51.785Z,25.00
2018-05-26T19:00:20.277Z,24.80
2018-05-26T19:02:48.643Z,24.70
2018-05-26T19:05:16.990Z,24.60
2018-05-26T19:07:46.129Z,24.30
2018-05-26T19:10:14.490Z,24.30
2018-05-26T19:12:42.870Z,24.10
2018-05-26T19:15:11.209Z,23.90
2018-05-26T19:17:40.378Z,23.60
2018-05-26T19:20:08.756Z,23.60
2018-05-26T19:22:37.147Z,23.50
2018-05-26T19:25:05.503Z,23.40
2018-05-26T19:27:34.273Z,23.20
2018-05-26T19:30:02.625Z,23.10
2018-05-26T19:32:30.965Z,23.00
2018-05-26T19:34:59.371Z,22.90
2018-05-26T19:37:27.706Z,22.80
2018-05-26T19:39:56.058Z,22.70
2018-05-26T19:42:24.454Z,22.60
2018-05-26T19:44:52.989Z,22.50
2018-05-26T19:47:21.921Z,22.60
2018-05-26T19:49:50.306Z,22.60
2018-05-26T19:52:18.662Z,22.70
2018-05-26T19:54:47.042Z,22.80
2018-05-26T19:57:15.423Z,22.80
2018-05-26T19:59:43.799Z,22.90
2018-05-26T20:02:12.159Z,22.80
2018-05-26T20:04:40.666Z,22.80
2018-05-26T20:07:09.081Z,22.70
2018-05-26T20:09:38.212Z,22.60
2018-05-26T20:12:06.601Z,22.60
2018-05-26T20:14:34.965Z,22.50
2018-05-26T20:17:03.345Z,22.50
2018-05-26T20:19:31.689Z,22.30
2018-05-26T20:22:00.920Z,22.20
2018-05-26T20:24:29.264Z,22.20
2018-05-26T20:26:58.413Z,21.90
2018-05-26T20:29:26.805Z,21.90
2018-05-26T20:31:55.135Z,21.90
2018-05-26T20:34:23.652Z,21.90
2018-05-26T20:36:52.024Z,21.90
2018-05-26T20:39:20.379Z,21.80
2018-05-26T20:41:48.763Z,21.80
2018-05-26T20:44:17.309Z,21.70
2018-05-26T20:46:46.431Z,21.70
2018-05-26T20:49:14.792Z,21.70
2018-05-26T20:51:43.183Z,21.70
2018-05-26T20:54:11.544Z,21.70
2018-05-26T20:56:40.664Z,21.60
2018-05-26T20:59:09.048Z,21.60
2018-05-26T21:01:37.428Z,21.60
2018-05-26T21:04:05.793Z,21.60
2018-05-26T21:06:34.182Z,21.60
2018-05-26T21:09:02.555Z,21.60
2018-05-26T21:11:30.902Z,21.70
2018-05-26T21:14:00.042Z,21.60
2018-05-26T21:16:28.412Z,21.60
2018-05-26T21:18:56.800Z,21.50
2018-05-26T21:21:25.156Z,21.30
2018-05-26T21:23:53.571Z,21.20
2018-05-26T21:26:21.929Z,21.20
2018-05-26T21:28:50.287Z,21.10
2018-05-26T21:31:18.686Z,20.80
2018-05-26T21:33:47.052Z,20.90
2018-05-26T21:36:15.419Z,20.90
2018-05-26T21:38:44.185Z,20.80
2018-05-26T21:41:12.538Z,20.70
2018-05-26T21:43:40.898Z,20.70
2018-05-26T21:46:09.261Z,20.50
2018-05-26T21:48:37.617Z,20.50
2018-05-26T21:51:06.335Z,20.40
2018-05-26T21:53:34.725Z,20.40
2018-05-26T21:56:03.069Z,20.30
2018-05-26T21:58:31.450Z,20.30
2018-05-26T22:00:59.896Z,20.10
2018-05-26T22:03:28.258Z,20.10
2018-05-26T22:05:57.384Z,20.00
2018-05-26T22:08:25.770Z,20.00
2018-05-26T22:10:54.132Z,20.00
2018-05-26T22:13:22.497Z,19.90
2018-05-26T22:15:50.880Z,19.90
2018-05-26T22:18:19.418Z,19.80
2018-05-26T22:20:47.747Z,19.80
2018-05-26T22:23:16.081Z,19.90
2018-05-26T22:25:44.467Z,19.80
2018-05-26T22:28:13.568Z,19.60
2018-05-26T22:30:42.715Z,19.50
2018-05-26T22:33:11.058Z,19.50
2018-05-26T22:35:39.825Z,19.50
2018-05-26T22:38:08.938Z,19.40
2018-05-26T22:40:37.290Z,19.40
2018-05-26T22:43:06.748Z,19.40
2018-05-26T22:45:35.118Z,19.30
2018-05-26T22:48:03.474Z,19.40
2018-05-26T22:50:31.968Z,19.40
2018-05-26T22:53:00.323Z,19.50
2018-05-26T22:55:29.445Z,19.60
2018-05-26T22:57:57.823Z,19.60
2018-05-26T23:00:26.178Z,19.50
2018-05-26T23:02:54.531Z,19.40
2018-05-26T23:05:22.892Z,19.20
2018-05-26T23:07:51.294Z,19.10
2018-05-26T23:10:20.432Z,18.90
2018-05-26T23:12:48.806Z,18.90
2018-05-26T23:15:17.185Z,18.80
2018-05-26T23:17:45.931Z,18.80
2018-05-26T23:20:15.046Z,18.70
2018-05-26T23:22:43.433Z,18.60
2018-05-26T23:25:11.829Z,18.50
2018-05-26T23:27:40.182Z,18.40
2018-05-26T23:30:08.580Z,18.40
2018-05-26T23:32:36.936Z,18.30
2018-05-26T23:35:05.297Z,18.30
2018-05-26T23:37:34.447Z,18.10
2018-05-26T23:40:02.841Z,18.10
2018-05-26T23:42:31.210Z,18.00
2018-05-26T23:44:59.630Z,18.00
2018-05-26T23:47:27.988Z,17.90
2018-05-26T23:49:56.344Z,18.00
2018-05-26T23:52:25.112Z,18.00
2018-05-26T23:54:53.477Z,18.00
2018-05-26T23:57:21.828Z,18.00
2018-05-26T23:59:50.196Z,17.90
